Hai Hua — XUDB9 — position and weather

sailwx.info

Track history (hours):
 
Tides and Currents Weather Stations Pressure Air Temp Water Temp Dewpoint Dewpoint Depression Visibility Wind Speed Wind Dir Waves Ship Positions

Hai Hua

Last reported at 2015-Mar-04 13:05 UTC. Time now 2015-Mar-06 21:42 UTC.
Position N 34°01' E 134°59'.

Length 69 m; draft 4 m.

Type: Cargo ship. MMSI: 515171000.

Date/timePositionNaut miles runAvg speedWind from/ knotsBaromVisibWave heightAir tempDewpointWater temp
2015-Mar-04 13:05N 34°01' E 134°59'610.1
2015-Mar-04 12:32N 34°07' E 134°59'10 9.8
2015-Mar-04 11:32N 34°17' E 134°58'8 8.0
2015-Mar-04 10:33N 34°22' E 135°05'3 3.1
2015-Mar-04 09:31N 34°23' E 135°09'0 0.0
2015-Mar-04 08:31N 34°23' E 135°09'0 0.0
2015-Mar-04 07:28N 34°23' E 135°09'0 0.0
2015-Mar-04 06:13N 34°23' E 135°09'0 0.0
2015-Mar-04 05:31N 34°23' E 135°09'0 0.0
2015-Mar-04 04:31N 34°23' E 135°09'0 0.0
2015-Mar-04 03:31N 34°23' E 135°09'0 0.0
2015-Mar-04 02:28N 34°23' E 135°09'0 0.0
2015-Mar-04 01:28N 34°23' E 135°09'0 0.0
2015-Mar-04 00:31N 34°23' E 135°09'0 0.0
2015-Mar-03 23:31N 34°23' E 135°09'0 0.0
2015-Mar-03 22:31N 34°23' E 135°09'0 0.0
2015-Mar-03 21:33N 34°23' E 135°09'6 6.3
2015-Mar-03 20:34N 34°29' E 135°07'9 9.4
2015-Mar-03 19:34N 34°37' E 135°01'1210.4
2015-Mar-03 18:26N 34°33' E 134°48'  
2015-Feb-26 08:04N 33°59' E 130°42'4 0.4
2015-Feb-25 22:16N 33°58' E 130°46'  
Track history (hours):
 
Tides and Currents Weather Stations Pressure Air Temp Water Temp Dewpoint Dewpoint Depression Visibility Wind Speed Wind Dir Waves Ship Positions

Hai Hua

Last reported at 2015-Mar-04 13:05 UTC. Time now 2015-Mar-06 21:42 UTC.
Position N 34°01' E 134°59'.

Length 69 m; draft 4 m.

Type: Cargo ship. MMSI: 515171000.

Date/timePositionNaut miles runAvg speedWind from/ knotsBaromVisibWave heightAir tempDewpointWater temp
2015-Mar-04 13:05N 34°01' E 134°59'610.1
2015-Mar-04 12:32N 34°07' E 134°59'10 9.8
2015-Mar-04 11:32N 34°17' E 134°58'8 8.0
2015-Mar-04 10:33N 34°22' E 135°05'3 3.1
2015-Mar-04 09:31N 34°23' E 135°09'0 0.0
2015-Mar-04 08:31N 34°23' E 135°09'0 0.0
2015-Mar-04 07:28N 34°23' E 135°09'0 0.0
2015-Mar-04 06:13N 34°23' E 135°09'0 0.0
2015-Mar-04 05:31N 34°23' E 135°09'0 0.0
2015-Mar-04 04:31N 34°23' E 135°09'0 0.0
2015-Mar-04 03:31N 34°23' E 135°09'0 0.0
2015-Mar-04 02:28N 34°23' E 135°09'0 0.0
2015-Mar-04 01:28N 34°23' E 135°09'0 0.0
2015-Mar-04 00:31N 34°23' E 135°09'0 0.0
2015-Mar-03 23:31N 34°23' E 135°09'0 0.0
2015-Mar-03 22:31N 34°23' E 135°09'0 0.0
2015-Mar-03 21:33N 34°23' E 135°09'6 6.3
2015-Mar-03 20:34N 34°29' E 135°07'9 9.4
2015-Mar-03 19:34N 34°37' E 135°01'1210.4
2015-Mar-03 18:26N 34°33' E 134°48'  
2015-Feb-26 08:04N 33°59' E 130°42'4 0.4
2015-Feb-25 22:16N 33°58' E 130°46'  

Dump ship's entire track history